Armada, Nebraska
Current Conditions -  °F | °C
As of 4:55 PM on Friday 19 Dec 2014 (Local Time) from KEAR Reporting Station
Broken Clouds Broken Clouds  
Wind Chill: 23°   Ceiling: 400
Heat Index: 30°   Visibility: 3mi
Dew Point: 28°   Wind: 7mph
Humidity: 93%   Direction: 190°S
Pressure: 30.05"   Gusts: NA
Location:  40.9599°N, 99.3688°W
Report Text: KEAR 192255Z 19006KT 3SM BKN004 M01/M02 A3005 RMK AO1
Loading
Personal Weather Stations






























Interactive Weather Map New forecast layout! Learn more

10-Day Weather Forecast

Advertisements
Track Severe Weather on mobile